sensor_id;sensor_type;location;lat;lon;timestamp;temperature;humidity
578;DHT22;275;48.492;9.214;2023-06-10T00:01:53;22.20;29.20
578;DHT22;275;48.492;9.214;2023-06-10T00:04:23;22.40;29.00
578;DHT22;275;48.492;9.214;2023-06-10T00:06:51;22.60;28.70
578;DHT22;275;48.492;9.214;2023-06-10T00:09:19;22.30;29.20
578;DHT22;275;48.492;9.214;2023-06-10T00:11:47;22.10;29.50
578;DHT22;275;48.492;9.214;2023-06-10T00:14:14;22.10;29.70
578;DHT22;275;48.492;9.214;2023-06-10T00:16:40;22.20;29.20
578;DHT22;275;48.492;9.214;2023-06-10T00:19:10;22.40;29.00
578;DHT22;275;48.492;9.214;2023-06-10T00:21:39;22.20;29.00
578;DHT22;275;48.492;9.214;2023-06-10T00:24:08;22.20;29.20
578;DHT22;275;48.492;9.214;2023-06-10T00:26:37;22.30;29.20
578;DHT22;275;48.492;9.214;2023-06-10T00:29:04;22.10;29.50
578;DHT22;275;48.492;9.214;2023-06-10T00:31:30;22.00;29.50
578;DHT22;275;48.492;9.214;2023-06-10T00:33:57;22.10;29.20
578;DHT22;275;48.492;9.214;2023-06-10T00:36:25;22.20;29.10
578;DHT22;275;48.492;9.214;2023-06-10T00:38:52;22.10;29.30
578;DHT22;275;48.492;9.214;2023-06-10T00:41:20;22.00;29.50
578;DHT22;275;48.492;9.214;2023-06-10T00:43:47;22.10;29.20
578;DHT22;275;48.492;9.214;2023-06-10T00:46:14;22.20;29.20
578;DHT22;275;48.492;9.214;2023-06-10T00:48:43;22.30;29.10
578;DHT22;275;48.492;9.214;2023-06-10T00:51:10;22.20;29.10
578;DHT22;275;48.492;9.214;2023-06-10T00:53:40;22.10;29.40
578;DHT22;275;48.492;9.214;2023-06-10T00:56:07;22.20;29.40
578;DHT22;275;48.492;9.214;2023-06-10T00:58:36;22.20;29.50
578;DHT22;275;48.492;9.214;2023-06-10T01:01:03;21.40;31.10
578;DHT22;275;48.492;9.214;2023-06-10T01:03:30;21.30;31.70
578;DHT22;275;48.492;9.214;2023-06-10T01:06:01;21.40;31.50
578;DHT22;275;48.492;9.214;2023-06-10T01:08:37;21.50;31.20
578;DHT22;275;48.492;9.214;2023-06-10T01:11:11;21.50;31.10
578;DHT22;275;48.492;9.214;2023-06-10T01:13:42;21.60;30.90
578;DHT22;275;48.492;9.214;2023-06-10T01:16:10;21.60;30.80
578;DHT22;275;48.492;9.214;2023-06-10T01:18:40;21.70;30.50
578;DHT22;275;48.492;9.214;2023-06-10T01:21:07;21.90;30.30
578;DHT22;275;48.492;9.214;2023-06-10T01:23:36;22.00;30.00
578;DHT22;275;48.492;9.214;2023-06-10T01:26:07;21.90;30.30
578;DHT22;275;48.492;9.214;2023-06-10T01:28:41;22.00;30.30
578;DHT22;275;48.492;9.214;2023-06-10T01:31:13;21.70;30.90
578;DHT22;275;48.492;9.214;2023-06-10T01:33:43;21.30;32.10
578;DHT22;275;48.492;9.214;2023-06-10T01:36:12;21.00;32.70
578;DHT22;275;48.492;9.214;2023-06-10T01:38:43;20.80;33.10
578;DHT22;275;48.492;9.214;2023-06-10T01:41:12;20.90;32.80
578;DHT22;275;48.492;9.214;2023-06-10T01:43:40;20.20;34.50
578;DHT22;275;48.492;9.214;2023-06-10T01:46:07;20.20;34.70
578;DHT22;275;48.492;9.214;2023-06-10T01:48:33;20.40;33.80
578;DHT22;275;48.492;9.214;2023-06-10T01:51:00;20.70;33.20
578;DHT22;275;48.492;9.214;2023-06-10T01:53:27;20.40;33.80
578;DHT22;275;48.492;9.214;2023-06-10T01:55:55;20.20;34.00
578;DHT22;275;48.492;9.214;2023-06-10T01:58:22;20.10;34.10
578;DHT22;275;48.492;9.214;2023-06-10T02:00:49;20.40;34.00
578;DHT22;275;48.492;9.214;2023-06-10T02:03:16;20.10;34.00
578;DHT22;275;48.492;9.214;2023-06-10T02:05:42;20.00;34.60
578;DHT22;275;48.492;9.214;2023-06-10T02:08:09;19.90;35.00
578;DHT22;275;48.492;9.214;2023-06-10T02:10:36;20.10;34.60
578;DHT22;275;48.492;9.214;2023-06-10T02:13:04;19.80;34.60
578;DHT22;275;48.492;9.214;2023-06-10T02:15:31;19.70;35.10
578;DHT22;275;48.492;9.214;2023-06-10T02:17:59;19.90;34.80
578;DHT22;275;48.492;9.214;2023-06-10T02:20:26;20.30;34.00
578;DHT22;275;48.492;9.214;2023-06-10T02:22:53;20.50;33.80
578;DHT22;275;48.492;9.214;2023-06-10T02:25:20;20.10;34.50
578;DHT22;275;48.492;9.214;2023-06-10T02:27:47;20.00;35.10
578;DHT22;275;48.492;9.214;2023-06-10T02:30:15;20.20;34.50
578;DHT22;275;48.492;9.214;2023-06-10T02:32:42;20.30;34.20
578;DHT22;275;48.492;9.214;2023-06-10T02:35:12;20.40;33.90
578;DHT22;275;48.492;9.214;2023-06-10T02:37:39;20.50;33.50
578;DHT22;275;48.492;9.214;2023-06-10T02:40:07;20.60;33.60
578;DHT22;275;48.492;9.214;2023-06-10T02:42:35;20.70;33.20
578;DHT22;275;48.492;9.214;2023-06-10T02:45:02;20.80;33.30
578;DHT22;275;48.492;9.214;2023-06-10T02:47:31;20.70;33.40
578;DHT22;275;48.492;9.214;2023-06-10T02:49:57;20.60;34.40
578;DHT22;275;48.492;9.214;2023-06-10T02:52:24;20.80;33.30
578;DHT22;275;48.492;9.214;2023-06-10T02:54:51;20.70;33.40
578;DHT22;275;48.492;9.214;2023-06-10T02:57:18;20.50;33.80
578;DHT22;275;48.492;9.214;2023-06-10T02:59:45;20.60;33.60
578;DHT22;275;48.492;9.214;2023-06-10T03:02:12;20.60;33.60
578;DHT22;275;48.492;9.214;2023-06-10T03:04:40;20.50;34.10
578;DHT22;275;48.492;9.214;2023-06-10T03:07:09;20.40;34.20
578;DHT22;275;48.492;9.214;2023-06-10T03:09:36;20.20;34.80
578;DHT22;275;48.492;9.214;2023-06-10T03:12:04;20.10;34.90
578;DHT22;275;48.492;9.214;2023-06-10T03:14:31;20.00;35.30
578;DHT22;275;48.492;9.214;2023-06-10T03:16:58;20.10;35.00
578;DHT22;275;48.492;9.214;2023-06-10T03:19:25;19.90;35.70
578;DHT22;275;48.492;9.214;2023-06-10T03:22:07;20.00;35.40
578;DHT22;275;48.492;9.214;2023-06-10T03:24:35;19.80;36.00
578;DHT22;275;48.492;9.214;2023-06-10T03:27:06;19.80;35.60
578;DHT22;275;48.492;9.214;2023-06-10T03:29:33;20.00;35.60
578;DHT22;275;48.492;9.214;2023-06-10T03:32:00;20.20;35.00
578;DHT22;275;48.492;9.214;2023-06-10T03:34:27;20.20;35.00
578;DHT22;275;48.492;9.214;2023-06-10T03:36:56;20.30;34.50
578;DHT22;275;48.492;9.214;2023-06-10T03:39:23;20.40;34.50
578;DHT22;275;48.492;9.214;2023-06-10T03:41:50;20.50;34.90
578;DHT22;275;48.492;9.214;2023-06-10T03:44:17;20.50;34.00
578;DHT22;275;48.492;9.214;2023-06-10T03:46:44;20.30;34.50
578;DHT22;275;48.492;9.214;2023-06-10T03:49:11;20.10;35.20
578;DHT22;275;48.492;9.214;2023-06-10T03:51:38;20.10;35.00
578;DHT22;275;48.492;9.214;2023-06-10T03:54:06;20.10;34.80
578;DHT22;275;48.492;9.214;2023-06-10T03:56:33;19.90;35.10
578;DHT22;275;48.492;9.214;2023-06-10T03:59:00;19.90;35.40
578;DHT22;275;48.492;9.214;2023-06-10T04:01:27;20.00;35.10
578;DHT22;275;48.492;9.214;2023-06-10T04:03:53;20.30;34.40
578;DHT22;275;48.492;9.214;2023-06-10T04:06:20;20.60;34.10
578;DHT22;275;48.492;9.214;2023-06-10T04:08:50;20.80;33.60
578;DHT22;275;48.492;9.214;2023-06-10T04:11:18;20.40;34.50
578;DHT22;275;48.492;9.214;2023-06-10T04:13:45;20.20;35.20
578;DHT22;275;48.492;9.214;2023-06-10T04:16:12;21.00;33.90
578;DHT22;275;48.492;9.214;2023-06-10T04:18:39;21.50;33.00
578;DHT22;275;48.492;9.214;2023-06-10T04:21:07;21.70;32.30
578;DHT22;275;48.492;9.214;2023-06-10T04:23:35;21.70;33.10
578;DHT22;275;48.492;9.214;2023-06-10T04:26:02;21.70;32.50
578;DHT22;275;48.492;9.214;2023-06-10T04:28:32;21.40;33.00
578;DHT22;275;48.492;9.214;2023-06-10T04:30:59;21.80;31.90
578;DHT22;275;48.492;9.214;2023-06-10T04:33:26;22.20;31.10
578;DHT22;275;48.492;9.214;2023-06-10T04:35:53;22.60;30.50
578;DHT22;275;48.492;9.214;2023-06-10T04:38:20;23.20;29.50
578;DHT22;275;48.492;9.214;2023-06-10T04:40:47;23.60;28.90
578;DHT22;275;48.492;9.214;2023-06-10T04:43:14;24.20;28.50
578;DHT22;275;48.492;9.214;2023-06-10T04:45:42;23.80;28.50
578;DHT22;275;48.492;9.214;2023-06-10T04:48:10;23.90;28.30
578;DHT22;275;48.492;9.214;2023-06-10T04:50:37;24.30;27.80
578;DHT22;275;48.492;9.214;2023-06-10T04:53:04;24.60;27.30
578;DHT22;275;48.492;9.214;2023-06-10T04:55:31;25.00;26.70
578;DHT22;275;48.492;9.214;2023-06-10T04:57:58;24.20;27.90
578;DHT22;275;48.492;9.214;2023-06-10T05:00:25;23.50;29.10
578;DHT22;275;48.492;9.214;2023-06-10T05:02:53;23.30;29.40
578;DHT22;275;48.492;9.214;2023-06-10T05:05:21;23.40;29.20
578;DHT22;275;48.492;9.214;2023-06-10T05:07:48;24.10;28.40
578;DHT22;275;48.492;9.214;2023-06-10T05:10:15;24.60;27.60
578;DHT22;275;48.492;9.214;2023-06-10T05:12:42;24.90;27.30
578;DHT22;275;48.492;9.214;2023-06-10T05:15:09;24.90;27.10
578;DHT22;275;48.492;9.214;2023-06-10T05:17:36;25.90;25.80
578;DHT22;275;48.492;9.214;2023-06-10T05:20:06;25.80;26.00
578;DHT22;275;48.492;9.214;2023-06-10T05:22:33;26.00;25.70
578;DHT22;275;48.492;9.214;2023-06-10T05:25:01;25.90;25.80
578;DHT22;275;48.492;9.214;2023-06-10T05:27:28;25.20;26.80
578;DHT22;275;48.492;9.214;2023-06-10T05:29:55;25.80;26.30
578;DHT22;275;48.492;9.214;2023-06-10T05:32:22;26.10;25.70
578;DHT22;275;48.492;9.214;2023-06-10T05:34:48;26.10;25.40
578;DHT22;275;48.492;9.214;2023-06-10T05:37:17;26.50;25.00
578;DHT22;275;48.492;9.214;2023-06-10T05:39:43;26.80;24.60
578;DHT22;275;48.492;9.214;2023-06-10T05:42:10;27.50;23.50
578;DHT22;275;48.492;9.214;2023-06-10T05:44:37;28.00;22.60
578;DHT22;275;48.492;9.214;2023-06-10T05:47:04;28.50;21.70
578;DHT22;275;48.492;9.214;2023-06-10T05:49:31;28.80;21.30
578;DHT22;275;48.492;9.214;2023-06-10T05:51:58;28.80;21.20
578;DHT22;275;48.492;9.214;2023-06-10T05:54:26;29.00;21.10
578;DHT22;275;48.492;9.214;2023-06-10T05:56:53;29.40;20.70
578;DHT22;275;48.492;9.214;2023-06-10T05:59:20;29.80;20.10
578;DHT22;275;48.492;9.214;2023-06-10T06:01:48;30.40;19.40
578;DHT22;275;48.492;9.214;2023-06-10T06:04:15;30.50;19.20
578;DHT22;275;48.492;9.214;2023-06-10T06:06:42;30.70;19.10
578;DHT22;275;48.492;9.214;2023-06-10T06:09:09;30.90;18.50
578;DHT22;275;48.492;9.214;2023-06-10T06:11:37;30.70;18.60
578;DHT22;275;48.492;9.214;2023-06-10T06:14:04;30.80;18.60
578;DHT22;275;48.492;9.214;2023-06-10T06:16:31;30.70;18.60
578;DHT22;275;48.492;9.214;2023-06-10T06:18:58;30.10;19.30
578;DHT22;275;48.492;9.214;2023-06-10T06:21:25;30.90;18.50
578;DHT22;275;48.492;9.214;2023-06-10T06:23:52;31.00;18.20
578;DHT22;275;48.492;9.214;2023-06-10T06:26:19;30.70;18.70
578;DHT22;275;48.492;9.214;2023-06-10T06:28:47;30.20;19.30
578;DHT22;275;48.492;9.214;2023-06-10T06:31:14;30.20;19.30
578;DHT22;275;48.492;9.214;2023-06-10T06:33:41;30.30;19.10
578;DHT22;275;48.492;9.214;2023-06-10T06:36:08;30.20;19.40
578;DHT22;275;48.492;9.214;2023-06-10T06:38:34;30.10;19.50
578;DHT22;275;48.492;9.214;2023-06-10T06:41:01;30.00;19.40
578;DHT22;275;48.492;9.214;2023-06-10T06:43:31;30.10;19.30
578;DHT22;275;48.492;9.214;2023-06-10T06:45:59;28.90;20.70
578;DHT22;275;48.492;9.214;2023-06-10T06:48:26;28.50;21.40
578;DHT22;275;48.492;9.214;2023-06-10T06:50:53;28.20;21.70
578;DHT22;275;48.492;9.214;2023-06-10T06:53:21;27.90;22.30
578;DHT22;275;48.492;9.214;2023-06-10T06:55:48;27.40;22.90
578;DHT22;275;48.492;9.214;2023-06-10T06:58:15;26.70;24.20
578;DHT22;275;48.492;9.214;2023-06-10T07:00:42;25.30;26.60
578;DHT22;275;48.492;9.214;2023-06-10T07:03:10;24.70;27.50
578;DHT22;275;48.492;9.214;2023-06-10T07:05:37;24.50;28.10
578;DHT22;275;48.492;9.214;2023-06-10T07:08:04;24.20;28.40
578;DHT22;275;48.492;9.214;2023-06-10T07:10:31;23.80;29.40
578;DHT22;275;48.492;9.214;2023-06-10T07:12:58;23.70;29.90
578;DHT22;275;48.492;9.214;2023-06-10T07:15:25;23.60;30.50
578;DHT22;275;48.492;9.214;2023-06-10T07:17:52;23.50;31.20
578;DHT22;275;48.492;9.214;2023-06-10T07:20:20;24.80;29.50
578;DHT22;275;48.492;9.214;2023-06-10T07:22:47;26.70;26.80
578;DHT22;275;48.492;9.214;2023-06-10T07:25:14;29.30;23.20
578;DHT22;275;48.492;9.214;2023-06-10T07:27:41;30.90;20.90
578;DHT22;275;48.492;9.214;2023-06-10T07:30:08;31.40;20.10
578;DHT22;275;48.492;9.214;2023-06-10T07:32:36;31.90;19.80
578;DHT22;275;48.492;9.214;2023-06-10T07:35:05;32.20;19.20
578;DHT22;275;48.492;9.214;2023-06-10T07:37:33;32.30;19.30
578;DHT22;275;48.492;9.214;2023-06-10T07:40:00;31.80;19.60
578;DHT22;275;48.492;9.214;2023-06-10T07:42:27;32.10;19.40
578;DHT22;275;48.492;9.214;2023-06-10T07:44:54;33.20;18.10
578;DHT22;275;48.492;9.214;2023-06-10T07:47:21;32.90;18.40
578;DHT22;275;48.492;9.214;2023-06-10T07:49:47;34.10;17.20
578;DHT22;275;48.492;9.214;2023-06-10T07:52:14;35.50;15.80
578;DHT22;275;48.492;9.214;2023-06-10T07:54:42;36.40;14.50
578;DHT22;275;48.492;9.214;2023-06-10T07:57:09;35.90;14.70
578;DHT22;275;48.492;9.214;2023-06-10T07:59:37;33.50;17.30
578;DHT22;275;48.492;9.214;2023-06-10T08:02:04;33.80;17.00
578;DHT22;275;48.492;9.214;2023-06-10T08:04:32;33.00;18.10
578;DHT22;275;48.492;9.214;2023-06-10T08:07:00;34.00;17.00
578;DHT22;275;48.492;9.214;2023-06-10T08:09:27;33.80;16.80
578;DHT22;275;48.492;9.214;2023-06-10T08:11:56;34.40;16.60
578;DHT22;275;48.492;9.214;2023-06-10T08:14:22;35.30;15.80
578;DHT22;275;48.492;9.214;2023-06-10T08:16:49;34.70;15.90
578;DHT22;275;48.492;9.214;2023-06-10T08:19:16;33.70;17.10
578;DHT22;275;48.492;9.214;2023-06-10T08:21:43;34.40;16.00
578;DHT22;275;48.492;9.214;2023-06-10T08:24:10;34.70;15.80
578;DHT22;275;48.492;9.214;2023-06-10T08:26:38;34.00;16.60
578;DHT22;275;48.492;9.214;2023-06-10T08:29:06;33.50;17.30
578;DHT22;275;48.492;9.214;2023-06-10T08:31:33;33.30;17.40
578;DHT22;275;48.492;9.214;2023-06-10T08:34:00;32.70;18.80
578;DHT22;275;48.492;9.214;2023-06-10T08:36:27;31.90;19.20
578;DHT22;275;48.492;9.214;2023-06-10T08:38:55;31.30;19.80
578;DHT22;275;48.492;9.214;2023-06-10T08:41:24;32.20;19.10
578;DHT22;275;48.492;9.214;2023-06-10T08:43:57;34.60;16.40
578;DHT22;275;48.492;9.214;2023-06-10T08:46:28;35.90;15.10
578;DHT22;275;48.492;9.214;2023-06-10T08:48:58;35.60;15.20
578;DHT22;275;48.492;9.214;2023-06-10T08:51:29;35.50;14.90
578;DHT22;275;48.492;9.214;2023-06-10T08:54:01;36.10;14.50
578;DHT22;275;48.492;9.214;2023-06-10T08:56:29;37.10;13.60
578;DHT22;275;48.492;9.214;2023-06-10T08:58:57;37.70;12.70
578;DHT22;275;48.492;9.214;2023-06-10T09:01:30;38.00;12.20
578;DHT22;275;48.492;9.214;2023-06-10T09:03:59;38.20;12.00
578;DHT22;275;48.492;9.214;2023-06-10T09:06:26;38.60;11.70
578;DHT22;275;48.492;9.214;2023-06-10T09:08:53;39.20;11.30
578;DHT22;275;48.492;9.214;2023-06-10T09:11:20;39.00;11.20
578;DHT22;275;48.492;9.214;2023-06-10T09:13:47;37.20;12.60
578;DHT22;275;48.492;9.214;2023-06-10T09:16:14;37.50;12.60
578;DHT22;275;48.492;9.214;2023-06-10T09:18:43;39.10;11.10
578;DHT22;275;48.492;9.214;2023-06-10T09:21:10;37.00;11.70
578;DHT22;275;48.492;9.214;2023-06-10T09:23:37;37.30;11.60
578;DHT22;275;48.492;9.214;2023-06-10T09:26:08;36.30;12.60
578;DHT22;275;48.492;9.214;2023-06-10T09:28:35;36.60;12.40
578;DHT22;275;48.492;9.214;2023-06-10T09:31:03;37.50;11.10
578;DHT22;275;48.492;9.214;2023-06-10T09:33:31;35.80;11.70
578;DHT22;275;48.492;9.214;2023-06-10T09:36:01;36.10;11.80
578;DHT22;275;48.492;9.214;2023-06-10T09:38:33;35.80;11.90
578;DHT22;275;48.492;9.214;2023-06-10T09:41:00;36.80;11.30
578;DHT22;275;48.492;9.214;2023-06-10T09:43:39;37.00;10.80
578;DHT22;275;48.492;9.214;2023-06-10T09:46:07;34.20;12.30
578;DHT22;275;48.492;9.214;2023-06-10T09:48:35;31.50;16.30
578;DHT22;275;48.492;9.214;2023-06-10T09:51:08;32.00;15.10
578;DHT22;275;48.492;9.214;2023-06-10T09:53:36;35.00;12.70
578;DHT22;275;48.492;9.214;2023-06-10T09:56:03;35.50;12.00
578;DHT22;275;48.492;9.214;2023-06-10T09:58:35;36.60;11.50
578;DHT22;275;48.492;9.214;2023-06-10T10:01:05;36.70;10.40
578;DHT22;275;48.492;9.214;2023-06-10T10:03:32;37.20;10.20
578;DHT22;275;48.492;9.214;2023-06-10T10:06:00;37.30;10.30
578;DHT22;275;48.492;9.214;2023-06-10T10:08:28;37.50;10.40
578;DHT22;275;48.492;9.214;2023-06-10T10:10:56;35.10;11.50
578;DHT22;275;48.492;9.214;2023-06-10T10:13:26;33.40;13.80
578;DHT22;275;48.492;9.214;2023-06-10T10:15:56;34.60;12.60
578;DHT22;275;48.492;9.214;2023-06-10T10:18:29;33.90;12.80
578;DHT22;275;48.492;9.214;2023-06-10T10:20:59;33.10;13.90
578;DHT22;275;48.492;9.214;2023-06-10T10:23:32;35.10;12.20
578;DHT22;275;48.492;9.214;2023-06-10T10:26:01;36.80;10.60
578;DHT22;275;48.492;9.214;2023-06-10T10:28:36;34.40;12.50
578;DHT22;275;48.492;9.214;2023-06-10T10:31:08;33.50;13.70
578;DHT22;275;48.492;9.214;2023-06-10T10:33:42;32.50;14.80
578;DHT22;275;48.492;9.214;2023-06-10T10:36:13;30.40;17.40
578;DHT22;275;48.492;9.214;2023-06-10T10:38:42;31.90;16.40
578;DHT22;275;48.492;9.214;2023-06-10T10:41:09;32.60;14.70
578;DHT22;275;48.492;9.214;2023-06-10T10:43:37;31.90;15.30
578;DHT22;275;48.492;9.214;2023-06-10T10:46:12;31.40;16.20
578;DHT22;275;48.492;9.214;2023-06-10T10:48:40;31.10;16.00
578;DHT22;275;48.492;9.214;2023-06-10T10:51:08;31.90;15.70
578;DHT22;275;48.492;9.214;2023-06-10T10:53:36;32.30;15.30
578;DHT22;275;48.492;9.214;2023-06-10T10:56:07;31.80;15.70
578;DHT22;275;48.492;9.214;2023-06-10T10:58:34;32.30;15.30
578;DHT22;275;48.492;9.214;2023-06-10T11:01:10;31.30;16.20
578;DHT22;275;48.492;9.214;2023-06-10T11:03:43;31.90;15.90
578;DHT22;275;48.492;9.214;2023-06-10T11:06:13;34.40;13.40
578;DHT22;275;48.492;9.214;2023-06-10T11:08:47;33.80;13.40
578;DHT22;275;48.492;9.214;2023-06-10T11:11:21;32.60;14.70
578;DHT22;275;48.492;9.214;2023-06-10T11:14:09;31.60;16.20
578;DHT22;275;48.492;9.214;2023-06-10T11:16:40;31.70;16.40
578;DHT22;275;48.492;9.214;2023-06-10T11:19:08;34.60;13.60
578;DHT22;275;48.492;9.214;2023-06-10T11:21:57;37.20;10.60
578;DHT22;275;48.492;9.214;2023-06-10T11:24:24;34.50;12.90
578;DHT22;275;48.492;9.214;2023-06-10T11:26:52;31.90;15.30
578;DHT22;275;48.492;9.214;2023-06-10T11:29:19;29.90;18.00
578;DHT22;275;48.492;9.214;2023-06-10T11:31:50;29.70;18.40
578;DHT22;275;48.492;9.214;2023-06-10T11:34:24;31.00;17.50
578;DHT22;275;48.492;9.214;2023-06-10T11:36:53;33.80;14.00
578;DHT22;275;48.492;9.214;2023-06-10T11:39:21;34.80;13.50
578;DHT22;275;48.492;9.214;2023-06-10T11:41:49;36.20;10.90
578;DHT22;275;48.492;9.214;2023-06-10T11:44:18;37.40;10.30
578;DHT22;275;48.492;9.214;2023-06-10T11:46:47;37.60;9.40
578;DHT22;275;48.492;9.214;2023-06-10T11:49:15;37.00;9.40
578;DHT22;275;48.492;9.214;2023-06-10T11:51:42;33.20;13.40
578;DHT22;275;48.492;9.214;2023-06-10T11:54:14;31.50;15.50
578;DHT22;275;48.492;9.214;2023-06-10T11:56:42;30.70;17.00
578;DHT22;275;48.492;9.214;2023-06-10T11:59:09;30.20;17.70
578;DHT22;275;48.492;9.214;2023-06-10T12:01:41;29.70;18.50
578;DHT22;275;48.492;9.214;2023-06-10T12:04:10;29.30;19.00
578;DHT22;275;48.492;9.214;2023-06-10T12:06:44;29.70;19.00
578;DHT22;275;48.492;9.214;2023-06-10T12:09:16;30.40;18.40
578;DHT22;275;48.492;9.214;2023-06-10T12:11:43;33.20;15.10
578;DHT22;275;48.492;9.214;2023-06-10T12:14:10;34.80;12.70
578;DHT22;275;48.492;9.214;2023-06-10T12:16:40;34.40;12.60
578;DHT22;275;48.492;9.214;2023-06-10T12:19:07;32.90;14.20
578;DHT22;275;48.492;9.214;2023-06-10T12:21:36;30.90;16.90
578;DHT22;275;48.492;9.214;2023-06-10T12:24:08;30.60;17.40
578;DHT22;275;48.492;9.214;2023-06-10T12:26:41;31.20;17.00
578;DHT22;275;48.492;9.214;2023-06-10T12:29:28;31.80;15.50
578;DHT22;275;48.492;9.214;2023-06-10T12:31:58;33.20;14.40
578;DHT22;275;48.492;9.214;2023-06-10T12:34:34;33.70;13.80
578;DHT22;275;48.492;9.214;2023-06-10T12:37:03;33.10;14.00
578;DHT22;275;48.492;9.214;2023-06-10T12:39:32;35.40;11.50
578;DHT22;275;48.492;9.214;2023-06-10T12:41:59;36.90;10.30
578;DHT22;275;48.492;9.214;2023-06-10T12:44:31;38.00;9.20
578;DHT22;275;48.492;9.214;2023-06-10T12:46:59;38.40;9.00
578;DHT22;275;48.492;9.214;2023-06-10T12:49:26;36.60;10.50
578;DHT22;275;48.492;9.214;2023-06-10T12:51:53;34.30;12.60
578;DHT22;275;48.492;9.214;2023-06-10T12:54:20;34.40;12.70
578;DHT22;275;48.492;9.214;2023-06-10T12:56:47;33.30;13.50
578;DHT22;275;48.492;9.214;2023-06-10T12:59:14;31.00;15.90
578;DHT22;275;48.492;9.214;2023-06-10T13:01:41;30.50;16.50
578;DHT22;275;48.492;9.214;2023-06-10T13:04:09;30.50;16.50
578;DHT22;275;48.492;9.214;2023-06-10T13:06:37;31.20;15.60
578;DHT22;275;48.492;9.214;2023-06-10T13:09:05;31.00;15.70
578;DHT22;275;48.492;9.214;2023-06-10T13:11:33;31.30;15.90
578;DHT22;275;48.492;9.214;2023-06-10T13:14:01;30.50;15.70
578;DHT22;275;48.492;9.214;2023-06-10T13:16:30;30.80;15.90
578;DHT22;275;48.492;9.214;2023-06-10T13:18:57;30.60;15.80
578;DHT22;275;48.492;9.214;2023-06-10T13:21:26;30.50;16.00
578;DHT22;275;48.492;9.214;2023-06-10T13:23:53;30.10;16.40
578;DHT22;275;48.492;9.214;2023-06-10T13:26:20;30.20;16.80
578;DHT22;275;48.492;9.214;2023-06-10T13:28:47;30.50;16.70
578;DHT22;275;48.492;9.214;2023-06-10T13:31:14;30.20;17.30
578;DHT22;275;48.492;9.214;2023-06-10T13:33:40;29.50;18.00
578;DHT22;275;48.492;9.214;2023-06-10T13:36:09;29.00;18.50
578;DHT22;275;48.492;9.214;2023-06-10T13:38:37;29.00;18.70
578;DHT22;275;48.492;9.214;2023-06-10T13:41:04;29.20;18.70
578;DHT22;275;48.492;9.214;2023-06-10T13:43:32;28.80;18.70
578;DHT22;275;48.492;9.214;2023-06-10T13:45:59;29.60;18.00
578;DHT22;275;48.492;9.214;2023-06-10T13:48:25;29.80;18.00
578;DHT22;275;48.492;9.214;2023-06-10T13:50:53;30.40;16.90
578;DHT22;275;48.492;9.214;2023-06-10T13:53:19;30.80;16.30
578;DHT22;275;48.492;9.214;2023-06-10T13:55:48;30.90;16.40
578;DHT22;275;48.492;9.214;2023-06-10T13:58:14;29.80;17.40
578;DHT22;275;48.492;9.214;2023-06-10T14:00:42;29.40;17.40
578;DHT22;275;48.492;9.214;2023-06-10T14:03:08;29.60;17.50
578;DHT22;275;48.492;9.214;2023-06-10T14:05:35;29.90;17.20
578;DHT22;275;48.492;9.214;2023-06-10T14:08:03;30.20;17.00
578;DHT22;275;48.492;9.214;2023-06-10T14:10:30;30.20;17.20
578;DHT22;275;48.492;9.214;2023-06-10T14:12:58;30.20;16.90
578;DHT22;275;48.492;9.214;2023-06-10T14:15:26;29.80;17.80
578;DHT22;275;48.492;9.214;2023-06-10T14:17:53;30.30;17.50
578;DHT22;275;48.492;9.214;2023-06-10T14:20:19;30.40;17.10
578;DHT22;275;48.492;9.214;2023-06-10T14:22:46;31.30;16.10
578;DHT22;275;48.492;9.214;2023-06-10T14:25:13;31.30;15.60
578;DHT22;275;48.492;9.214;2023-06-10T14:27:40;30.90;15.70
578;DHT22;275;48.492;9.214;2023-06-10T14:30:09;31.40;14.80
578;DHT22;275;48.492;9.214;2023-06-10T14:32:36;31.70;14.20
578;DHT22;275;48.492;9.214;2023-06-10T14:35:04;31.20;14.80
578;DHT22;275;48.492;9.214;2023-06-10T14:37:30;31.10;15.00
578;DHT22;275;48.492;9.214;2023-06-10T14:39:57;30.30;16.00
578;DHT22;275;48.492;9.214;2023-06-10T14:42:24;30.10;16.10
578;DHT22;275;48.492;9.214;2023-06-10T14:44:51;31.00;15.40
578;DHT22;275;48.492;9.214;2023-06-10T14:47:19;31.40;14.60
578;DHT22;275;48.492;9.214;2023-06-10T14:49:46;30.30;16.60
578;DHT22;275;48.492;9.214;2023-06-10T14:52:13;29.40;17.70
578;DHT22;275;48.492;9.214;2023-06-10T14:54:40;29.70;19.00
578;DHT22;275;48.492;9.214;2023-06-10T14:57:07;29.40;19.80
578;DHT22;275;48.492;9.214;2023-06-10T14:59:34;29.50;20.00
578;DHT22;275;48.492;9.214;2023-06-10T15:02:01;29.00;20.30
578;DHT22;275;48.492;9.214;2023-06-10T15:04:29;28.60;21.00
578;DHT22;275;48.492;9.214;2023-06-10T15:06:56;28.30;21.50
578;DHT22;275;48.492;9.214;2023-06-10T15:09:23;28.20;21.90
578;DHT22;275;48.492;9.214;2023-06-10T15:11:50;28.40;21.60
578;DHT22;275;48.492;9.214;2023-06-10T15:14:17;28.40;21.40
578;DHT22;275;48.492;9.214;2023-06-10T15:16:43;28.60;20.80
578;DHT22;275;48.492;9.214;2023-06-10T15:19:10;28.50;21.70
578;DHT22;275;48.492;9.214;2023-06-10T15:21:38;29.20;20.60
578;DHT22;275;48.492;9.214;2023-06-10T15:24:06;29.10;20.70
578;DHT22;275;48.492;9.214;2023-06-10T15:26:33;28.80;21.10
578;DHT22;275;48.492;9.214;2023-06-10T15:29:00;28.20;21.80
578;DHT22;275;48.492;9.214;2023-06-10T15:31:29;27.80;22.80
578;DHT22;275;48.492;9.214;2023-06-10T15:33:57;27.50;23.50
578;DHT22;275;48.492;9.214;2023-06-10T15:36:25;27.70;23.50
578;DHT22;275;48.492;9.214;2023-06-10T15:38:54;27.50;23.30
578;DHT22;275;48.492;9.214;2023-06-10T15:41:21;27.30;24.10
578;DHT22;275;48.492;9.214;2023-06-10T15:43:48;27.60;23.20
578;DHT22;275;48.492;9.214;2023-06-10T15:46:15;27.80;22.60
578;DHT22;275;48.492;9.214;2023-06-10T15:48:41;27.60;22.90
578;DHT22;275;48.492;9.214;2023-06-10T15:51:08;27.80;22.60
578;DHT22;275;48.492;9.214;2023-06-10T15:53:36;28.20;22.20
578;DHT22;275;48.492;9.214;2023-06-10T15:56:04;28.60;21.80
578;DHT22;275;48.492;9.214;2023-06-10T15:58:31;28.20;21.60
578;DHT22;275;48.492;9.214;2023-06-10T16:00:57;28.00;22.10
578;DHT22;275;48.492;9.214;2023-06-10T16:03:25;28.00;21.60
578;DHT22;275;48.492;9.214;2023-06-10T16:05:52;27.80;22.00
578;DHT22;275;48.492;9.214;2023-06-10T16:08:18;28.10;21.50
578;DHT22;275;48.492;9.214;2023-06-10T16:10:46;28.10;21.80
578;DHT22;275;48.492;9.214;2023-06-10T16:13:14;28.90;20.90
578;DHT22;275;48.492;9.214;2023-06-10T16:15:41;29.40;20.40
578;DHT22;275;48.492;9.214;2023-06-10T16:18:08;29.00;20.40
578;DHT22;275;48.492;9.214;2023-06-10T16:20:35;28.40;20.80
578;DHT22;275;48.492;9.214;2023-06-10T16:23:02;28.40;20.70
578;DHT22;275;48.492;9.214;2023-06-10T16:25:29;27.90;21.90
578;DHT22;275;48.492;9.214;2023-06-10T16:27:57;27.80;22.00
578;DHT22;275;48.492;9.214;2023-06-10T16:30:26;27.50;22.60
578;DHT22;275;48.492;9.214;2023-06-10T16:32:52;27.60;22.50
578;DHT22;275;48.492;9.214;2023-06-10T16:35:19;28.00;22.20
578;DHT22;275;48.492;9.214;2023-06-10T16:37:46;28.30;21.70
578;DHT22;275;48.492;9.214;2023-06-10T16:40:13;28.30;21.80